sensor_id;sensor_type;location;lat;lon;timestamp;P1;durP1;ratioP1;P2;durP2;ratioP2
9815;SDS011;4947;44.526;11.360;2022-12-08T00:00:53;138.87;;;42.87;;
9815;SDS011;4947;44.526;11.360;2022-12-08T00:03:22;141.73;;;43.10;;
9815;SDS011;4947;44.526;11.360;2022-12-08T00:05:49;139.10;;;43.70;;
9815;SDS011;4947;44.526;11.360;2022-12-08T00:08:35;136.40;;;44.47;;
9815;SDS011;4947;44.526;11.360;2022-12-08T00:11:20;141.90;;;42.23;;
9815;SDS011;4947;44.526;11.360;2022-12-08T00:13:47;133.97;;;42.17;;
9815;SDS011;4947;44.526;11.360;2022-12-08T00:16:14;138.77;;;42.57;;
9815;SDS011;4947;44.526;11.360;2022-12-08T00:18:41;126.27;;;43.40;;
9815;SDS011;4947;44.526;11.360;2022-12-08T00:21:09;137.80;;;41.83;;
9815;SDS011;4947;44.526;11.360;2022-12-08T00:23:38;142.97;;;42.70;;
9815;SDS011;4947;44.526;11.360;2022-12-08T00:26:06;132.10;;;41.10;;
9815;SDS011;4947;44.526;11.360;2022-12-08T00:28:34;136.80;;;41.67;;
9815;SDS011;4947;44.526;11.360;2022-12-08T00:31:07;123.13;;;40.00;;
9815;SDS011;4947;44.526;11.360;2022-12-08T00:33:36;123.63;;;38.93;;
9815;SDS011;4947;44.526;11.360;2022-12-08T00:36:04;129.57;;;41.27;;
9815;SDS011;4947;44.526;11.360;2022-12-08T00:38:32;134.87;;;41.70;;
9815;SDS011;4947;44.526;11.360;2022-12-08T00:41:02;140.10;;;40.83;;
9815;SDS011;4947;44.526;11.360;2022-12-08T00:43:29;127.33;;;41.43;;
9815;SDS011;4947;44.526;11.360;2022-12-08T00:45:57;131.43;;;41.17;;
9815;SDS011;4947;44.526;11.360;2022-12-08T00:48:24;131.20;;;39.77;;
9815;SDS011;4947;44.526;11.360;2022-12-08T00:50:54;126.57;;;39.63;;
9815;SDS011;4947;44.526;11.360;2022-12-08T00:53:21;132.67;;;40.40;;
9815;SDS011;4947;44.526;11.360;2022-12-08T00:55:49;121.87;;;41.33;;
9815;SDS011;4947;44.526;11.360;2022-12-08T00:58:21;116.90;;;40.50;;
9815;SDS011;4947;44.526;11.360;2022-12-08T01:00:48;124.80;;;41.77;;
9815;SDS011;4947;44.526;11.360;2022-12-08T01:03:15;113.20;;;38.93;;
9815;SDS011;4947;44.526;11.360;2022-12-08T01:05:43;117.23;;;39.03;;
9815;SDS011;4947;44.526;11.360;2022-12-08T01:08:11;110.20;;;38.67;;
9815;SDS011;4947;44.526;11.360;2022-12-08T01:10:38;105.10;;;38.63;;
9815;SDS011;4947;44.526;11.360;2022-12-08T01:13:06;116.20;;;38.67;;
9815;SDS011;4947;44.526;11.360;2022-12-08T01:15:35;123.73;;;38.40;;
9815;SDS011;4947;44.526;11.360;2022-12-08T01:18:03;124.27;;;38.57;;
9815;SDS011;4947;44.526;11.360;2022-12-08T01:20:30;100.97;;;37.50;;
9815;SDS011;4947;44.526;11.360;2022-12-08T01:22:58;106.80;;;38.30;;
9815;SDS011;4947;44.526;11.360;2022-12-08T01:25:26;108.17;;;38.40;;
9815;SDS011;4947;44.526;11.360;2022-12-08T01:27:53;104.90;;;36.83;;
9815;SDS011;4947;44.526;11.360;2022-12-08T01:30:21;109.10;;;36.10;;
9815;SDS011;4947;44.526;11.360;2022-12-08T01:32:50;108.13;;;37.43;;
9815;SDS011;4947;44.526;11.360;2022-12-08T01:35:18;95.23;;;35.77;;
9815;SDS011;4947;44.526;11.360;2022-12-08T01:37:45;115.23;;;35.53;;
9815;SDS011;4947;44.526;11.360;2022-12-08T01:40:13;100.47;;;36.63;;
9815;SDS011;4947;44.526;11.360;2022-12-08T01:42:40;98.43;;;35.27;;
9815;SDS011;4947;44.526;11.360;2022-12-08T01:45:12;106.27;;;36.20;;
9815;SDS011;4947;44.526;11.360;2022-12-08T01:47:43;100.03;;;35.90;;
9815;SDS011;4947;44.526;11.360;2022-12-08T01:50:16;110.53;;;38.37;;
9815;SDS011;4947;44.526;11.360;2022-12-08T01:52:45;109.30;;;37.83;;
9815;SDS011;4947;44.526;11.360;2022-12-08T01:55:16;101.20;;;37.07;;
9815;SDS011;4947;44.526;11.360;2022-12-08T01:57:46;121.37;;;38.03;;
9815;SDS011;4947;44.526;11.360;2022-12-08T02:00:17;113.97;;;38.30;;
9815;SDS011;4947;44.526;11.360;2022-12-08T02:02:49;109.47;;;37.77;;
9815;SDS011;4947;44.526;11.360;2022-12-08T02:05:21;107.17;;;36.63;;
9815;SDS011;4947;44.526;11.360;2022-12-08T02:07:51;117.87;;;39.03;;
9815;SDS011;4947;44.526;11.360;2022-12-08T02:10:21;98.50;;;41.40;;
9815;SDS011;4947;44.526;11.360;2022-12-08T02:12:50;108.40;;;36.60;;
9815;SDS011;4947;44.526;11.360;2022-12-08T02:15:21;103.87;;;38.67;;
9815;SDS011;4947;44.526;11.360;2022-12-08T02:18:00;118.17;;;39.93;;
9815;SDS011;4947;44.526;11.360;2022-12-08T02:20:48;114.83;;;38.07;;
9815;SDS011;4947;44.526;11.360;2022-12-08T02:23:23;106.10;;;39.30;;
9815;SDS011;4947;44.526;11.360;2022-12-08T02:26:03;110.50;;;38.10;;
9815;SDS011;4947;44.526;11.360;2022-12-08T02:29:03;94.47;;;33.63;;
9815;SDS011;4947;44.526;11.360;2022-12-08T02:31:43;106.00;;;37.23;;
9815;SDS011;4947;44.526;11.360;2022-12-08T02:34:24;98.80;;;35.33;;
9815;SDS011;4947;44.526;11.360;2022-12-08T02:37:00;97.07;;;36.57;;
9815;SDS011;4947;44.526;11.360;2022-12-08T02:39:36;102.30;;;38.13;;
9815;SDS011;4947;44.526;11.360;2022-12-08T02:42:14;122.87;;;42.57;;
9815;SDS011;4947;44.526;11.360;2022-12-08T02:44:49;125.83;;;41.63;;
9815;SDS011;4947;44.526;11.360;2022-12-08T02:47:20;107.50;;;39.63;;
9815;SDS011;4947;44.526;11.360;2022-12-08T02:49:53;129.93;;;41.70;;
9815;SDS011;4947;44.526;11.360;2022-12-08T02:52:41;118.87;;;41.83;;
9815;SDS011;4947;44.526;11.360;2022-12-08T02:55:12;107.47;;;38.37;;
9815;SDS011;4947;44.526;11.360;2022-12-08T02:57:52;108.37;;;37.30;;
9815;SDS011;4947;44.526;11.360;2022-12-08T03:00:43;123.97;;;40.40;;
9815;SDS011;4947;44.526;11.360;2022-12-08T03:03:23;115.13;;;40.53;;
9815;SDS011;4947;44.526;11.360;2022-12-08T03:06:05;96.10;;;37.87;;
9815;SDS011;4947;44.526;11.360;2022-12-08T03:08:41;113.93;;;37.87;;
9815;SDS011;4947;44.526;11.360;2022-12-08T03:11:17;105.03;;;38.07;;
9815;SDS011;4947;44.526;11.360;2022-12-08T03:13:51;106.90;;;36.80;;
9815;SDS011;4947;44.526;11.360;2022-12-08T03:16:22;123.73;;;38.97;;
9815;SDS011;4947;44.526;11.360;2022-12-08T03:18:53;112.90;;;39.40;;
9815;SDS011;4947;44.526;11.360;2022-12-08T03:21:26;109.87;;;37.57;;
9815;SDS011;4947;44.526;11.360;2022-12-08T03:23:55;96.27;;;34.60;;
9815;SDS011;4947;44.526;11.360;2022-12-08T03:26:24;98.20;;;35.30;;
9815;SDS011;4947;44.526;11.360;2022-12-08T03:28:57;88.77;;;35.73;;
9815;SDS011;4947;44.526;11.360;2022-12-08T03:31:26;86.33;;;34.60;;
9815;SDS011;4947;44.526;11.360;2022-12-08T03:33:58;84.50;;;34.83;;
9815;SDS011;4947;44.526;11.360;2022-12-08T03:36:28;90.83;;;32.53;;
9815;SDS011;4947;44.526;11.360;2022-12-08T03:38:55;68.63;;;29.37;;
9815;SDS011;4947;44.526;11.360;2022-12-08T03:41:23;76.13;;;32.10;;
9815;SDS011;4947;44.526;11.360;2022-12-08T03:43:52;77.73;;;31.30;;
9815;SDS011;4947;44.526;11.360;2022-12-08T03:46:22;69.63;;;29.93;;
9815;SDS011;4947;44.526;11.360;2022-12-08T03:48:51;80.70;;;30.43;;
9815;SDS011;4947;44.526;11.360;2022-12-08T03:51:19;78.67;;;30.60;;
9815;SDS011;4947;44.526;11.360;2022-12-08T03:53:49;77.03;;;31.57;;
9815;SDS011;4947;44.526;11.360;2022-12-08T03:56:18;85.43;;;31.00;;
9815;SDS011;4947;44.526;11.360;2022-12-08T03:58:49;77.67;;;31.07;;
9815;SDS011;4947;44.526;11.360;2022-12-08T04:01:17;74.03;;;30.53;;
9815;SDS011;4947;44.526;11.360;2022-12-08T04:03:45;76.70;;;31.80;;
9815;SDS011;4947;44.526;11.360;2022-12-08T04:06:13;76.10;;;31.37;;
9815;SDS011;4947;44.526;11.360;2022-12-08T04:08:41;71.17;;;29.27;;
9815;SDS011;4947;44.526;11.360;2022-12-08T04:11:10;74.13;;;30.13;;
9815;SDS011;4947;44.526;11.360;2022-12-08T04:13:38;74.30;;;29.80;;
9815;SDS011;4947;44.526;11.360;2022-12-08T04:16:06;64.17;;;28.53;;
9815;SDS011;4947;44.526;11.360;2022-12-08T04:18:34;58.30;;;28.70;;
9815;SDS011;4947;44.526;11.360;2022-12-08T04:21:02;76.97;;;30.80;;
9815;SDS011;4947;44.526;11.360;2022-12-08T04:23:29;71.13;;;29.73;;
9815;SDS011;4947;44.526;11.360;2022-12-08T04:25:57;71.97;;;28.83;;
9815;SDS011;4947;44.526;11.360;2022-12-08T04:28:26;66.93;;;29.17;;
9815;SDS011;4947;44.526;11.360;2022-12-08T04:30:54;77.30;;;28.73;;
9815;SDS011;4947;44.526;11.360;2022-12-08T04:33:22;81.80;;;33.20;;
9815;SDS011;4947;44.526;11.360;2022-12-08T04:35:49;78.70;;;31.47;;
9815;SDS011;4947;44.526;11.360;2022-12-08T04:38:16;71.07;;;30.57;;
9815;SDS011;4947;44.526;11.360;2022-12-08T04:40:44;69.63;;;29.80;;
9815;SDS011;4947;44.526;11.360;2022-12-08T04:43:11;76.27;;;30.83;;
9815;SDS011;4947;44.526;11.360;2022-12-08T04:45:41;70.00;;;30.27;;
9815;SDS011;4947;44.526;11.360;2022-12-08T04:48:09;70.90;;;30.50;;
9815;SDS011;4947;44.526;11.360;2022-12-08T04:50:38;73.50;;;30.83;;
9815;SDS011;4947;44.526;11.360;2022-12-08T04:53:07;81.90;;;30.80;;
9815;SDS011;4947;44.526;11.360;2022-12-08T04:55:36;73.30;;;30.27;;
9815;SDS011;4947;44.526;11.360;2022-12-08T04:58:05;67.10;;;30.73;;
9815;SDS011;4947;44.526;11.360;2022-12-08T05:00:33;77.83;;;30.40;;
9815;SDS011;4947;44.526;11.360;2022-12-08T05:03:02;73.53;;;30.73;;
9815;SDS011;4947;44.526;11.360;2022-12-08T05:05:29;68.07;;;28.77;;
9815;SDS011;4947;44.526;11.360;2022-12-08T05:07:57;62.87;;;26.73;;
9815;SDS011;4947;44.526;11.360;2022-12-08T05:10:24;72.90;;;31.33;;
9815;SDS011;4947;44.526;11.360;2022-12-08T05:12:52;73.23;;;28.30;;
9815;SDS011;4947;44.526;11.360;2022-12-08T05:15:20;71.50;;;29.47;;
9815;SDS011;4947;44.526;11.360;2022-12-08T05:17:47;68.37;;;30.33;;
9815;SDS011;4947;44.526;11.360;2022-12-08T05:20:16;70.70;;;29.80;;
9815;SDS011;4947;44.526;11.360;2022-12-08T05:22:44;62.37;;;29.50;;
9815;SDS011;4947;44.526;11.360;2022-12-08T05:25:11;70.80;;;30.50;;
9815;SDS011;4947;44.526;11.360;2022-12-08T05:27:38;74.53;;;31.60;;
9815;SDS011;4947;44.526;11.360;2022-12-08T05:30:06;67.33;;;30.23;;
9815;SDS011;4947;44.526;11.360;2022-12-08T05:32:33;76.37;;;30.73;;
9815;SDS011;4947;44.526;11.360;2022-12-08T05:35:01;63.87;;;29.43;;
9815;SDS011;4947;44.526;11.360;2022-12-08T05:37:30;74.27;;;30.37;;
9815;SDS011;4947;44.526;11.360;2022-12-08T05:39:59;68.40;;;30.97;;
9815;SDS011;4947;44.526;11.360;2022-12-08T05:42:27;74.50;;;28.87;;
9815;SDS011;4947;44.526;11.360;2022-12-08T05:44:54;74.47;;;30.80;;
9815;SDS011;4947;44.526;11.360;2022-12-08T05:47:22;67.67;;;29.70;;
9815;SDS011;4947;44.526;11.360;2022-12-08T05:49:49;67.70;;;31.27;;
9815;SDS011;4947;44.526;11.360;2022-12-08T05:52:17;57.87;;;27.50;;
9815;SDS011;4947;44.526;11.360;2022-12-08T05:54:46;56.40;;;27.27;;
9815;SDS011;4947;44.526;11.360;2022-12-08T05:57:14;66.37;;;29.50;;
9815;SDS011;4947;44.526;11.360;2022-12-08T05:59:41;61.03;;;28.93;;
9815;SDS011;4947;44.526;11.360;2022-12-08T06:02:08;68.47;;;29.17;;
9815;SDS011;4947;44.526;11.360;2022-12-08T06:04:36;60.20;;;26.57;;
9815;SDS011;4947;44.526;11.360;2022-12-08T06:07:04;55.40;;;27.17;;
9815;SDS011;4947;44.526;11.360;2022-12-08T06:09:31;55.17;;;27.13;;
9815;SDS011;4947;44.526;11.360;2022-12-08T06:12:00;55.57;;;28.03;;
9815;SDS011;4947;44.526;11.360;2022-12-08T06:14:32;56.67;;;26.97;;
9815;SDS011;4947;44.526;11.360;2022-12-08T06:17:00;57.67;;;27.50;;
9815;SDS011;4947;44.526;11.360;2022-12-08T06:19:28;69.37;;;30.10;;
9815;SDS011;4947;44.526;11.360;2022-12-08T06:21:55;51.03;;;26.57;;
9815;SDS011;4947;44.526;11.360;2022-12-08T06:24:23;61.13;;;27.83;;
9815;SDS011;4947;44.526;11.360;2022-12-08T06:26:50;58.93;;;27.63;;
9815;SDS011;4947;44.526;11.360;2022-12-08T06:29:19;59.87;;;27.93;;
9815;SDS011;4947;44.526;11.360;2022-12-08T06:31:47;56.80;;;26.07;;
9815;SDS011;4947;44.526;11.360;2022-12-08T06:34:16;51.77;;;26.43;;
9815;SDS011;4947;44.526;11.360;2022-12-08T06:36:44;62.67;;;27.83;;
9815;SDS011;4947;44.526;11.360;2022-12-08T06:39:11;66.67;;;29.67;;
9815;SDS011;4947;44.526;11.360;2022-12-08T06:41:39;56.90;;;27.37;;
9815;SDS011;4947;44.526;11.360;2022-12-08T06:44:21;63.17;;;29.00;;
9815;SDS011;4947;44.526;11.360;2022-12-08T06:46:49;57.93;;;28.83;;
9815;SDS011;4947;44.526;11.360;2022-12-08T06:49:16;56.97;;;28.67;;
9815;SDS011;4947;44.526;11.360;2022-12-08T06:51:44;61.43;;;27.60;;
9815;SDS011;4947;44.526;11.360;2022-12-08T06:54:12;57.87;;;27.40;;
9815;SDS011;4947;44.526;11.360;2022-12-08T06:56:40;68.90;;;29.07;;
9815;SDS011;4947;44.526;11.360;2022-12-08T06:59:07;56.00;;;27.63;;
9815;SDS011;4947;44.526;11.360;2022-12-08T07:01:36;59.00;;;28.30;;
9815;SDS011;4947;44.526;11.360;2022-12-08T07:04:04;59.27;;;27.93;;
9815;SDS011;4947;44.526;11.360;2022-12-08T07:06:32;64.67;;;28.27;;
9815;SDS011;4947;44.526;11.360;2022-12-08T07:08:59;67.40;;;29.27;;
9815;SDS011;4947;44.526;11.360;2022-12-08T07:11:27;70.20;;;31.13;;
9815;SDS011;4947;44.526;11.360;2022-12-08T07:13:54;66.60;;;30.13;;
9815;SDS011;4947;44.526;11.360;2022-12-08T07:16:22;66.50;;;31.27;;
9815;SDS011;4947;44.526;11.360;2022-12-08T07:18:51;60.00;;;28.37;;
9815;SDS011;4947;44.526;11.360;2022-12-08T07:21:19;65.77;;;29.80;;
9815;SDS011;4947;44.526;11.360;2022-12-08T07:23:48;62.20;;;29.00;;
9815;SDS011;4947;44.526;11.360;2022-12-08T07:26:16;67.37;;;30.57;;
9815;SDS011;4947;44.526;11.360;2022-12-08T07:28:44;56.27;;;28.67;;
9815;SDS011;4947;44.526;11.360;2022-12-08T07:31:15;60.37;;;29.10;;
9815;SDS011;4947;44.526;11.360;2022-12-08T07:33:43;59.53;;;29.40;;
9815;SDS011;4947;44.526;11.360;2022-12-08T07:36:12;63.07;;;28.17;;
9815;SDS011;4947;44.526;11.360;2022-12-08T07:38:40;65.73;;;29.83;;
9815;SDS011;4947;44.526;11.360;2022-12-08T07:41:10;60.43;;;28.60;;
9815;SDS011;4947;44.526;11.360;2022-12-08T07:43:39;64.50;;;28.17;;
9815;SDS011;4947;44.526;11.360;2022-12-08T07:46:07;60.07;;;28.50;;
9815;SDS011;4947;44.526;11.360;2022-12-08T07:48:37;57.83;;;27.10;;
9815;SDS011;4947;44.526;11.360;2022-12-08T07:51:04;66.93;;;28.70;;
9815;SDS011;4947;44.526;11.360;2022-12-08T07:53:34;64.77;;;29.77;;
9815;SDS011;4947;44.526;11.360;2022-12-08T07:56:04;62.40;;;29.40;;
9815;SDS011;4947;44.526;11.360;2022-12-08T07:58:32;62.50;;;29.83;;
9815;SDS011;4947;44.526;11.360;2022-12-08T08:01:00;72.63;;;31.73;;
9815;SDS011;4947;44.526;11.360;2022-12-08T08:03:27;69.80;;;30.23;;
9815;SDS011;4947;44.526;11.360;2022-12-08T08:06:00;73.63;;;30.97;;
9815;SDS011;4947;44.526;11.360;2022-12-08T08:08:28;64.57;;;31.10;;
9815;SDS011;4947;44.526;11.360;2022-12-08T08:11:00;57.50;;;28.80;;
9815;SDS011;4947;44.526;11.360;2022-12-08T08:13:31;71.03;;;31.27;;
9815;SDS011;4947;44.526;11.360;2022-12-08T08:16:01;64.70;;;30.30;;
9815;SDS011;4947;44.526;11.360;2022-12-08T08:18:29;68.90;;;29.97;;
9815;SDS011;4947;44.526;11.360;2022-12-08T08:20:58;67.40;;;29.50;;
9815;SDS011;4947;44.526;11.360;2022-12-08T08:23:25;67.30;;;31.77;;
9815;SDS011;4947;44.526;11.360;2022-12-08T08:25:53;73.50;;;30.80;;
9815;SDS011;4947;44.526;11.360;2022-12-08T08:28:26;72.80;;;31.40;;
9815;SDS011;4947;44.526;11.360;2022-12-08T08:30:54;73.37;;;31.63;;
9815;SDS011;4947;44.526;11.360;2022-12-08T08:33:22;63.43;;;30.57;;
9815;SDS011;4947;44.526;11.360;2022-12-08T08:35:50;71.67;;;30.70;;
9815;SDS011;4947;44.526;11.360;2022-12-08T08:38:17;67.60;;;31.47;;
9815;SDS011;4947;44.526;11.360;2022-12-08T08:40:45;61.88;;;31.33;;
9815;SDS011;4947;44.526;11.360;2022-12-08T08:43:12;75.17;;;34.80;;
9815;SDS011;4947;44.526;11.360;2022-12-08T08:45:54;73.47;;;32.50;;
9815;SDS011;4947;44.526;11.360;2022-12-08T08:48:24;61.03;;;31.17;;
9815;SDS011;4947;44.526;11.360;2022-12-08T08:50:52;80.97;;;34.83;;
9815;SDS011;4947;44.526;11.360;2022-12-08T08:53:23;72.53;;;32.47;;
9815;SDS011;4947;44.526;11.360;2022-12-08T08:55:51;73.30;;;32.72;;
9815;SDS011;4947;44.526;11.360;2022-12-08T08:58:18;84.45;;;34.33;;
9815;SDS011;4947;44.526;11.360;2022-12-08T09:00:46;75.63;;;31.45;;
9815;SDS011;4947;44.526;11.360;2022-12-08T09:03:15;72.03;;;31.90;;
9815;SDS011;4947;44.526;11.360;2022-12-08T09:05:43;67.13;;;29.90;;
9815;SDS011;4947;44.526;11.360;2022-12-08T09:08:10;69.60;;;32.83;;
9815;SDS011;4947;44.526;11.360;2022-12-08T09:10:38;73.30;;;32.15;;
9815;SDS011;4947;44.526;11.360;2022-12-08T09:13:05;76.37;;;33.60;;
9815;SDS011;4947;44.526;11.360;2022-12-08T09:15:32;69.90;;;33.27;;
9815;SDS011;4947;44.526;11.360;2022-12-08T09:18:00;80.80;;;33.40;;
9815;SDS011;4947;44.526;11.360;2022-12-08T09:20:29;71.03;;;34.53;;
9815;SDS011;4947;44.526;11.360;2022-12-08T09:22:57;74.72;;;34.55;;
9815;SDS011;4947;44.526;11.360;2022-12-08T09:25:24;73.22;;;33.13;;
9815;SDS011;4947;44.526;11.360;2022-12-08T09:27:52;66.60;;;32.35;;
9815;SDS011;4947;44.526;11.360;2022-12-08T09:30:20;70.37;;;32.83;;
9815;SDS011;4947;44.526;11.360;2022-12-08T09:32:48;69.10;;;31.95;;
9815;SDS011;4947;44.526;11.360;2022-12-08T09:35:15;72.57;;;33.50;;
9815;SDS011;4947;44.526;11.360;2022-12-08T09:37:44;76.72;;;32.58;;
9815;SDS011;4947;44.526;11.360;2022-12-08T09:40:14;70.50;;;32.80;;
9815;SDS011;4947;44.526;11.360;2022-12-08T09:42:46;73.60;;;33.43;;
9815;SDS011;4947;44.526;11.360;2022-12-08T09:45:18;68.05;;;33.45;;
9815;SDS011;4947;44.526;11.360;2022-12-08T09:47:53;66.20;;;31.30;;
9815;SDS011;4947;44.526;11.360;2022-12-08T09:50:28;77.85;;;33.55;;
9815;SDS011;4947;44.526;11.360;2022-12-08T09:53:02;65.78;;;30.85;;
9815;SDS011;4947;44.526;11.360;2022-12-08T09:55:40;67.00;;;32.08;;
9815;SDS011;4947;44.526;11.360;2022-12-08T09:58:14;81.38;;;35.10;;
9815;SDS011;4947;44.526;11.360;2022-12-08T10:00:48;75.38;;;33.50;;
9815;SDS011;4947;44.526;11.360;2022-12-08T10:03:16;68.93;;;33.78;;
9815;SDS011;4947;44.526;11.360;2022-12-08T10:05:46;79.75;;;35.65;;
9815;SDS011;4947;44.526;11.360;2022-12-08T10:08:27;85.80;;;34.75;;
9815;SDS011;4947;44.526;11.360;2022-12-08T10:11:03;80.93;;;35.87;;
9815;SDS011;4947;44.526;11.360;2022-12-08T10:13:37;71.72;;;36.10;;
9815;SDS011;4947;44.526;11.360;2022-12-08T10:16:17;66.93;;;33.40;;
9815;SDS011;4947;44.526;11.360;2022-12-08T10:18:51;65.65;;;32.05;;
9815;SDS011;4947;44.526;11.360;2022-12-08T10:21:24;76.30;;;33.47;;
9815;SDS011;4947;44.526;11.360;2022-12-08T10:23:56;79.05;;;35.38;;
9815;SDS011;4947;44.526;11.360;2022-12-08T10:26:27;69.88;;;33.65;;
9815;SDS011;4947;44.526;11.360;2022-12-08T10:28:56;69.97;;;33.95;;
9815;SDS011;4947;44.526;11.360;2022-12-08T10:31:26;71.60;;;32.50;;
9815;SDS011;4947;44.526;11.360;2022-12-08T10:33:57;70.50;;;35.05;;
9815;SDS011;4947;44.526;11.360;2022-12-08T10:36:43;75.10;;;33.92;;
9815;SDS011;4947;44.526;11.360;2022-12-08T10:42:12;73.60;;;33.75;;
9815;SDS011;4947;44.526;11.360;2022-12-08T10:44:55;79.93;;;34.67;;
9815;SDS011;4947;44.526;11.360;2022-12-08T10:47:26;70.03;;;34.13;;
9815;SDS011;4947;44.526;11.360;2022-12-08T10:50:05;74.28;;;33.00;;
9815;SDS011;4947;44.526;11.360;2022-12-08T10:52:43;78.32;;;33.65;;
9815;SDS011;4947;44.526;11.360;2022-12-08T10:55:16;72.63;;;33.45;;
9815;SDS011;4947;44.526;11.360;2022-12-08T10:57:45;71.35;;;32.83;;
9815;SDS011;4947;44.526;11.360;2022-12-08T11:00:15;67.13;;;32.38;;
9815;SDS011;4947;44.526;11.360;2022-12-08T11:02:52;67.30;;;31.30;;
9815;SDS011;4947;44.526;11.360;2022-12-08T11:05:24;68.80;;;31.40;;
9815;SDS011;4947;44.526;11.360;2022-12-08T11:07:54;70.07;;;32.97;;
9815;SDS011;4947;44.526;11.360;2022-12-08T11:10:28;74.88;;;33.35;;
9815;SDS011;4947;44.526;11.360;2022-12-08T11:13:00;72.30;;;33.33;;
9815;SDS011;4947;44.526;11.360;2022-12-08T11:15:31;71.28;;;33.05;;
9815;SDS011;4947;44.526;11.360;2022-12-08T11:18:08;68.80;;;34.63;;
9815;SDS011;4947;44.526;11.360;2022-12-08T11:20:54;67.10;;;31.92;;
9815;SDS011;4947;44.526;11.360;2022-12-08T11:23:24;68.57;;;31.70;;
9815;SDS011;4947;44.526;11.360;2022-12-08T11:25:56;71.78;;;34.75;;
9815;SDS011;4947;44.526;11.360;2022-12-08T11:28:30;75.18;;;33.97;;
9815;SDS011;4947;44.526;11.360;2022-12-08T11:30:59;60.97;;;31.05;;
9815;SDS011;4947;44.526;11.360;2022-12-08T11:33:31;69.28;;;32.70;;
9815;SDS011;4947;44.526;11.360;2022-12-08T11:36:01;66.18;;;32.88;;
9815;SDS011;4947;44.526;11.360;2022-12-08T11:38:32;70.78;;;32.83;;
9815;SDS011;4947;44.526;11.360;2022-12-08T11:41:04;71.63;;;34.63;;
9815;SDS011;4947;44.526;11.360;2022-12-08T11:43:36;72.13;;;33.80;;
9815;SDS011;4947;44.526;11.360;2022-12-08T11:46:10;68.80;;;30.88;;
9815;SDS011;4947;44.526;11.360;2022-12-08T11:48:44;72.50;;;31.58;;
9815;SDS011;4947;44.526;11.360;2022-12-08T11:51:17;70.07;;;33.83;;
9815;SDS011;4947;44.526;11.360;2022-12-08T11:53:58;81.78;;;33.40;;
9815;SDS011;4947;44.526;11.360;2022-12-08T11:56:39;69.22;;;33.88;;
9815;SDS011;4947;44.526;11.360;2022-12-08T11:59:14;68.43;;;32.53;;
9815;SDS011;4947;44.526;11.360;2022-12-08T12:01:46;67.25;;;33.42;;
9815;SDS011;4947;44.526;11.360;2022-12-08T12:04:16;68.38;;;32.97;;
9815;SDS011;4947;44.526;11.360;2022-12-08T12:12:56;73.07;;;33.80;;
9815;SDS011;4947;44.526;11.360;2022-12-08T12:15:55;68.18;;;32.88;;
9815;SDS011;4947;44.526;11.360;2022-12-08T12:18:50;68.78;;;31.73;;
9815;SDS011;4947;44.526;11.360;2022-12-08T12:21:21;68.28;;;33.17;;
9815;SDS011;4947;44.526;11.360;2022-12-08T12:23:52;70.90;;;32.83;;
9815;SDS011;4947;44.526;11.360;2022-12-08T12:26:22;67.60;;;34.75;;
9815;SDS011;4947;44.526;11.360;2022-12-08T12:28:54;68.43;;;32.40;;
9815;SDS011;4947;44.526;11.360;2022-12-08T12:31:25;68.78;;;33.22;;
9815;SDS011;4947;44.526;11.360;2022-12-08T12:34:02;69.78;;;32.10;;
9815;SDS011;4947;44.526;11.360;2022-12-08T12:36:49;65.75;;;30.98;;
9815;SDS011;4947;44.526;11.360;2022-12-08T12:39:20;60.83;;;31.05;;
9815;SDS011;4947;44.526;11.360;2022-12-08T12:41:50;70.55;;;32.15;;
9815;SDS011;4947;44.526;11.360;2022-12-08T12:44:24;64.38;;;32.60;;
9815;SDS011;4947;44.526;11.360;2022-12-08T12:47:11;66.18;;;32.40;;
9815;SDS011;4947;44.526;11.360;2022-12-08T12:50:07;63.75;;;32.17;;
9815;SDS011;4947;44.526;11.360;2022-12-08T12:52:36;68.65;;;34.92;;
9815;SDS011;4947;44.526;11.360;2022-12-08T12:58:21;57.75;;;29.42;;
9815;SDS011;4947;44.526;11.360;2022-12-08T13:04:06;61.00;;;29.92;;
9815;SDS011;4947;44.526;11.360;2022-12-08T13:06:35;72.53;;;33.30;;
9815;SDS011;4947;44.526;11.360;2022-12-08T13:09:14;76.90;;;32.60;;
9815;SDS011;4947;44.526;11.360;2022-12-08T13:11:50;68.22;;;33.17;;
9815;SDS011;4947;44.526;11.360;2022-12-08T13:14:31;65.93;;;33.33;;
9815;SDS011;4947;44.526;11.360;2022-12-08T13:17:01;62.58;;;32.30;;
9815;SDS011;4947;44.526;11.360;2022-12-08T13:19:34;64.80;;;32.85;;
9815;SDS011;4947;44.526;11.360;2022-12-08T13:28:12;55.92;;;30.85;;
9815;SDS011;4947;44.526;11.360;2022-12-08T13:30:54;70.07;;;34.65;;
9815;SDS011;4947;44.526;11.360;2022-12-08T13:33:24;69.43;;;32.08;;
9815;SDS011;4947;44.526;11.360;2022-12-08T13:36:04;63.95;;;32.28;;
9815;SDS011;4947;44.526;11.360;2022-12-08T13:38:40;61.35;;;30.58;;
9815;SDS011;4947;44.526;11.360;2022-12-08T13:41:12;66.57;;;34.15;;
9815;SDS011;4947;44.526;11.360;2022-12-08T13:43:44;63.97;;;32.15;;
9815;SDS011;4947;44.526;11.360;2022-12-08T13:46:20;62.45;;;31.55;;
9815;SDS011;4947;44.526;11.360;2022-12-08T13:48:55;66.80;;;30.48;;
9815;SDS011;4947;44.526;11.360;2022-12-08T13:51:29;66.80;;;32.17;;
9815;SDS011;4947;44.526;11.360;2022-12-08T13:54:05;74.07;;;32.30;;
9815;SDS011;4947;44.526;11.360;2022-12-08T13:56:38;63.00;;;32.03;;
9815;SDS011;4947;44.526;11.360;2022-12-08T13:59:08;63.60;;;32.85;;
9815;SDS011;4947;44.526;11.360;2022-12-08T14:01:52;60.15;;;30.40;;
9815;SDS011;4947;44.526;11.360;2022-12-08T14:04:21;64.55;;;30.10;;
9815;SDS011;4947;44.526;11.360;2022-12-08T14:06:52;65.85;;;30.83;;
9815;SDS011;4947;44.526;11.360;2022-12-08T14:09:22;68.88;;;31.83;;
9815;SDS011;4947;44.526;11.360;2022-12-08T14:11:54;68.68;;;31.58;;
9815;SDS011;4947;44.526;11.360;2022-12-08T14:14:26;54.95;;;29.30;;
9815;SDS011;4947;44.526;11.360;2022-12-08T14:16:56;62.28;;;31.30;;
9815;SDS011;4947;44.526;11.360;2022-12-08T14:19:27;68.55;;;31.95;;
9815;SDS011;4947;44.526;11.360;2022-12-08T14:21:58;63.33;;;31.15;;
9815;SDS011;4947;44.526;11.360;2022-12-08T14:24:27;63.88;;;31.02;;
9815;SDS011;4947;44.526;11.360;2022-12-08T14:26:57;63.90;;;29.98;;
9815;SDS011;4947;44.526;11.360;2022-12-08T14:29:32;64.47;;;30.88;;
9815;SDS011;4947;44.526;11.360;2022-12-08T14:32:04;60.85;;;30.13;;
9815;SDS011;4947;44.526;11.360;2022-12-08T14:34:35;61.15;;;30.08;;
9815;SDS011;4947;44.526;11.360;2022-12-08T14:37:08;67.70;;;31.80;;
9815;SDS011;4947;44.526;11.360;2022-12-08T14:39:37;71.32;;;31.05;;
9815;SDS011;4947;44.526;11.360;2022-12-08T14:42:06;62.65;;;30.85;;
9815;SDS011;4947;44.526;11.360;2022-12-08T14:44:34;64.93;;;31.65;;
9815;SDS011;4947;44.526;11.360;2022-12-08T14:47:09;55.97;;;29.77;;
9815;SDS011;4947;44.526;11.360;2022-12-08T14:49:37;62.90;;;30.30;;
9815;SDS011;4947;44.526;11.360;2022-12-08T14:52:09;67.15;;;32.65;;
9815;SDS011;4947;44.526;11.360;2022-12-08T14:54:37;60.42;;;29.90;;
9815;SDS011;4947;44.526;11.360;2022-12-08T14:57:09;62.67;;;31.08;;
9815;SDS011;4947;44.526;11.360;2022-12-08T14:59:38;63.38;;;31.90;;
9815;SDS011;4947;44.526;11.360;2022-12-08T15:02:09;63.97;;;30.73;;
9815;SDS011;4947;44.526;11.360;2022-12-08T15:04:53;67.70;;;32.88;;
9815;SDS011;4947;44.526;11.360;2022-12-08T15:07:26;71.22;;;31.05;;
9815;SDS011;4947;44.526;11.360;2022-12-08T15:10:16;67.32;;;30.63;;
9815;SDS011;4947;44.526;11.360;2022-12-08T15:12:55;71.30;;;33.03;;
9815;SDS011;4947;44.526;11.360;2022-12-08T15:15:43;61.72;;;30.35;;